Fort Totten, New York
Current Conditions -  °F | °C
As of 3:51 PM on Thursday 18 Dec 2014 (Local Time) from KLGA Reporting Station
Broken Clouds Broken Clouds  
Wind Chill: 32°   Ceiling: 3900
Heat Index: 41°   Visibility: 10mi
Dew Point: 25°   Wind: 21mph
Humidity: 53%   Direction: 300°WNW
Pressure: 29.96"   Gusts: 28mph
Location:  40.7918°N, 73.7759°W
Report Text: KLGA 182051Z 30018G24KT 10SM BKN039 05/M04 A2996 RMK AO2 SLP143 T00501039 53003
Loading
Personal Weather Stations






























Interactive Weather Map New forecast layout! Learn more

10-Day Weather Forecast

Advertisements
Track Severe Weather on mobile